Time;durP1;ratioP1;P1;durP2;ratioP2;P2;SDS_P1;SDS_P2;PMS_P1;PMS_P2;Temp;Humidity;BMP_temperature;BMP_pressure;BME280_temperature;BME280_humidity;BME280_pressure;Samples;Min_cycle;Max_cycle;Signal;HPM_P1;HPM_P2
2022/10/20 00:00:12;;;;;;;8.80;7.45;;;;;;;6.11;100.00;101801.06;1027422;28;20357;-82
2022/10/20 00:00:43;;;;;;;12.43;7.88;;;;;;;6.16;100.00;101803.22;1028628;28;20717;-83
2022/10/20 00:01:17;;;;;;;8.98;6.93;;;;;;;6.11;100.00;101802.91;1031431;28;20374;-83
2022/10/20 00:01:48;;;;;;;8.15;6.93;;;;;;;6.08;100.00;101800.59;1027255;28;20309;-83
2022/10/20 00:02:20;;;;;;;9.07;7.20;;;;;;;6.07;100.00;101804.22;1030442;28;20688;-82
2022/10/20 00:02:52;;;;;;;8.73;7.13;;;;;;;6.09;100.00;101802.22;1031792;28;20344;-82
2022/10/20 00:03:25;;;;;;;9.50;7.45;;;;;;;6.08;100.00;101803.22;1017885;29;20300;-82
2022/10/20 00:03:56;;;;;;;9.75;7.18;;;;;;;6.13;100.00;101800.91;1019844;29;20670;-83
2022/10/20 00:04:28;;;;;;;11.30;7.53;;;;;;;6.10;100.00;101802.06;1023518;28;20310;-83
2022/10/20 00:05:00;;;;;;;7.97;7.13;;;;;;;6.11;100.00;101806.38;1018649;28;20692;-83
2022/10/20 00:05:31;;;;;;;9.00;7.57;;;;;;;6.10;100.00;101802.06;1023801;28;20661;-83
2022/10/20 00:06:10;;;;;;;9.70;8.23;;;;;;;6.09;100.00;101797.78;1027341;28;20317;-83
2022/10/20 00:06:42;;;;;;;9.18;7.10;;;;;;;6.10;100.00;101804.72;1028819;28;20294;-84
2022/10/20 00:07:13;;;;;;;10.15;7.70;;;;;;;6.15;100.00;101806.88;1028814;28;20389;-84
2022/10/20 00:07:45;;;;;;;13.02;7.85;;;;;;;6.13;100.00;101803.56;1030889;28;20309;-83
2022/10/20 00:08:17;;;;;;;10.05;7.63;;;;;;;6.16;100.00;101800.59;1031435;28;20301;-83
2022/10/20 00:08:48;;;;;;;10.00;6.78;;;;;;;6.11;100.00;101794.97;1029906;28;20306;-83
2022/10/20 00:09:20;;;;;;;9.73;7.03;;;;;;;6.11;100.00;101794.97;1031129;28;20818;-82
2022/10/20 00:09:52;;;;;;;7.35;6.65;;;;;;;6.12;100.00;101793.97;1031169;28;20308;-82
2022/10/20 00:10:23;;;;;;;7.90;6.85;;;;;;;6.12;100.00;101793.97;1023257;28;20303;-82
2022/10/20 00:10:55;;;;;;;8.80;6.72;;;;;;;6.10;100.00;101798.59;1027093;28;20298;-83
2022/10/20 00:11:27;;;;;;;10.82;7.80;;;;;;;6.09;100.00;101796.94;1023386;28;20302;-83
2022/10/20 00:11:59;;;;;;;7.88;7.07;;;;;;;6.09;100.00;101796.94;1023936;28;20376;-82
2022/10/20 00:12:30;;;;;;;10.07;8.15;;;;;;;6.06;100.00;101786.69;1027553;28;20316;-83
2022/10/20 00:13:02;;;;;;;7.38;6.75;;;;;;;6.08;100.00;101795.28;1027657;28;20321;-83
2022/10/20 00:13:34;;;;;;;8.77;6.90;;;;;;;6.08;100.00;101790.00;1024732;28;20761;-84
2022/10/20 00:14:05;;;;;;;11.15;6.45;;;;;;;6.08;100.00;101790.00;1019591;29;20291;-82
2022/10/20 00:14:37;;;;;;;7.50;6.50;;;;;;;6.09;100.00;101792.47;1015389;29;20322;-83
2022/10/20 00:15:09;;;;;;;9.88;7.38;;;;;;;6.09;100.00;101794.31;1018972;29;20310;-82
2022/10/20 00:15:47;;;;;;;13.75;7.10;;;;;;;6.09;100.00;101791.66;1023756;28;20315;-83
2022/10/20 00:16:20;;;;;;;11.45;7.68;;;;;;;6.08;100.00;101800.59;1019624;29;20288;-83
2022/10/20 00:16:52;;;;;;;12.95;7.60;;;;;;;6.10;100.00;101793.31;1015849;29;20801;-83
2022/10/20 00:17:23;;;;;;;7.15;6.55;;;;;;;6.08;100.00;101801.41;1014483;29;20303;-83
2022/10/20 00:17:55;;;;;;;9.32;7.88;;;;;;;6.09;100.00;101796.94;1016884;28;20307;-83
2022/10/20 00:18:27;;;;;;;10.48;6.75;;;;;;;6.10;100.00;101794.13;1019199;29;20299;-83
2022/10/20 00:18:58;;;;;;;8.07;6.90;;;;;;;6.13;100.00;101792.97;1024458;28;20317;-83
2022/10/20 00:19:31;;;;;;;7.50;6.80;;;;;;;6.11;100.00;101797.59;1031769;28;20316;-83
2022/10/20 00:20:03;;;;;;;14.77;8.10;;;;;;;6.11;100.00;101795.78;1031577;28;20312;-83
2022/10/20 00:20:38;;;;;;;8.90;6.88;;;;;;;6.13;100.00;101798.28;1030125;28;20916;-83
2022/10/20 00:21:15;;;;;;;8.02;6.47;;;;;;;6.16;100.00;101800.59;1031179;28;20301;-82
2022/10/20 00:21:47;;;;;;;8.82;7.13;;;;;;;6.09;100.00;101796.94;1029270;28;20380;-83
2022/10/20 00:22:19;;;;;;;9.25;7.20;;;;;;;6.12;100.00;101791.31;1023210;28;21469;-83
2022/10/20 00:22:50;;;;;;;11.88;6.38;;;;;;;6.15;100.00;101796.28;1026810;28;20291;-82
2022/10/20 00:23:22;;;;;;;13.50;7.03;;;;;;;6.23;100.00;101792.81;1027915;28;20389;-82
2022/10/20 00:23:55;;;;;;;13.52;6.68;;;;;;;6.18;100.00;101791.50;1031749;28;20806;-84
2022/10/20 00:24:26;;;;;;;7.70;6.93;;;;;;;6.18;100.00;101798.59;1035794;28;20292;-82
2022/10/20 00:24:58;;;;;;;7.60;5.97;;;;;;;6.18;100.00;101795.94;1035086;28;20845;-83
2022/10/20 00:25:30;;;;;;;9.55;6.53;;;;;;;6.19;100.00;101793.16;1035696;28;20292;-83
2022/10/20 00:26:02;;;;;;;10.15;6.90;;;;;;;6.20;100.00;101788.69;1035475;28;20327;-83
2022/10/20 00:26:34;;;;;;;11.13;7.45;;;;;;;6.20;100.00;101784.22;1035228;28;20304;-83
2022/10/20 00:27:05;;;;;;;9.68;7.22;;;;;;;6.22;100.00;101786.69;1035408;28;20312;-84
2022/10/20 00:27:37;;;;;;;12.60;6.63;;;;;;;6.25;100.00;101777.59;1027045;28;20804;-83
2022/10/20 00:28:08;;;;;;;6.82;6.22;;;;;;;6.22;100.00;101791.16;1020910;28;20310;-82
2022/10/20 00:28:40;;;;;;;12.80;7.55;;;;;;;6.20;100.00;101780.75;1023006;28;20754;-83
2022/10/20 00:29:12;;;;;;;10.88;6.85;;;;;;;6.17;100.00;101773.13;1019227;28;20296;-83
2022/10/20 00:29:46;;;;;;;7.65;6.60;;;;;;;6.19;100.00;101768.50;1020327;29;20295;-84
2022/10/20 00:30:18;;;;;;;8.85;6.63;;;;;;;6.17;100.00;101771.31;1023490;28;20317;-82
2022/10/20 00:30:55;;;;;;;8.60;6.78;;;;;;;6.16;100.00;101767.03;1028745;28;20298;-84
2022/10/20 00:31:27;;;;;;;8.07;6.68;;;;;;;6.21;100.00;101763.88;1025628;28;20310;-83
2022/10/20 00:31:58;;;;;;;10.25;6.30;;;;;;;6.17;100.00;101763.38;1024739;28;20765;-82
2022/10/20 00:32:30;;;;;;;7.90;7.10;;;;;;;6.15;100.00;101765.38;1027386;28;20360;-83
2022/10/20 00:33:03;;;;;;;8.52;6.53;;;;;;;6.18;100.00;101756.28;1027131;28;20309;-83
2022/10/20 00:33:35;;;;;;;7.68;6.15;;;;;;;6.22;100.00;101760.25;1028255;28;20297;-83
2022/10/20 00:34:06;;;;;;;8.43;6.60;;;;;;;6.18;100.00;101754.44;1027335;28;20816;-83
2022/10/20 00:34:38;;;;;;;9.65;6.93;;;;;;;6.22;100.00;101754.13;1023112;29;20307;-83
2022/10/20 00:35:09;;;;;;;8.10;7.28;;;;;;;6.20;100.00;101754.28;1026316;28;20299;-83
2022/10/20 00:35:41;;;;;;;7.57;6.88;;;;;;;6.19;100.00;101755.28;1027525;28;20342;-82
2022/10/20 00:36:16;;;;;;;7.07;6.25;;;;;;;6.16;100.00;101755.63;1027180;28;20294;-83
2022/10/20 00:36:47;;;;;;;10.45;6.28;;;;;;;6.18;100.00;101758.91;1026640;28;20784;-83
2022/10/20 00:37:22;;;;;;;7.35;6.65;;;;;;;6.16;100.00;101751.16;1026784;28;20306;-82
2022/10/20 00:37:53;;;;;;;6.97;6.00;;;;;;;6.13;100.00;101748.84;1025385;28;20309;-83
2022/10/20 00:38:25;;;;;;;11.40;6.35;;;;;;;6.11;100.00;101742.06;1024184;28;20314;-83
2022/10/20 00:38:58;;;;;;;9.18;6.28;;;;;;;6.16;100.00;101745.03;1024775;28;20856;-82
2022/10/20 00:39:30;;;;;;;10.48;7.15;;;;;;;6.17;100.00;101747.50;1024291;28;20290;-82
2022/10/20 00:40:02;;;;;;;7.25;6.57;;;;;;;6.16;100.00;101745.84;1026956;28;20361;-82
2022/10/20 00:40:33;;;;;;;7.13;6.15;;;;;;;6.14;100.00;101742.56;1026790;28;20297;-83
2022/10/20 00:41:05;;;;;;;7.90;6.82;;;;;;;6.18;100.00;101754.44;1027933;28;20814;-83
2022/10/20 00:41:37;;;;;;;9.23;6.45;;;;;;;6.15;100.00;101748.66;1031122;28;20842;-83
2022/10/20 00:42:16;;;;;;;8.52;6.40;;;;;;;6.16;100.00;101745.03;1031364;28;20289;-83
2022/10/20 00:42:48;;;;;;;9.82;7.05;;;;;;;6.14;100.00;101747.03;1027081;28;20677;-82
2022/10/20 00:43:20;;;;;;;9.57;7.05;;;;;;;6.08;100.00;101748.50;1019421;29;20311;-83
2022/10/20 00:43:53;;;;;;;8.18;6.88;;;;;;;6.09;100.00;101744.06;1016865;29;20308;-83
2022/10/20 00:45:03;;;;;;;8.52;6.85;;;;;;;6.13;100.00;101750.66;1015917;29;20303;-84
2022/10/20 00:45:35;;;;;;;8.57;6.30;;;;;;;6.15;100.00;101738.09;1012252;29;20316;-83
2022/10/20 00:46:06;;;;;;;8.50;5.43;;;;;;;6.12;100.00;101738.44;1013956;29;20814;-83
2022/10/20 00:46:39;;;;;;;9.38;7.40;;;;;;;6.09;100.00;101744.06;1014515;29;20339;-83
2022/10/20 00:47:13;;;;;;;10.90;7.00;;;;;;;6.11;100.00;101744.72;1015116;29;20308;-83
2022/10/20 00:48:12;;;;;;;9.68;7.93;;;;;;;6.16;100.00;101742.38;1015012;29;20310;-82
2022/10/20 00:48:51;;;;;;;9.27;6.28;;;;;;;6.19;100.00;101734.13;1013182;29;20312;-83
2022/10/20 00:49:24;;;;;;;9.15;7.05;;;;;;;6.20;100.00;101730.47;1015624;29;20793;-83
2022/10/20 00:50:03;;;;;;;10.05;6.15;;;;;;;6.17;100.00;101741.41;1019045;29;20303;-83
2022/10/20 00:50:40;;;;;;;7.68;5.63;;;;;;;6.17;100.00;101734.28;1019013;29;20714;-83
2022/10/20 00:51:14;;;;;;;6.30;5.72;;;;;;;6.23;100.00;101727.50;1016787;29;20314;-84
2022/10/20 00:51:47;;;;;;;9.05;6.05;;;;;;;6.21;100.00;101732.13;1030056;28;20309;-83
2022/10/20 00:52:19;;;;;;;8.80;5.75;;;;;;;6.18;100.00;101727.19;1031434;28;20305;-84
2022/10/20 00:52:52;;;;;;;10.27;6.70;;;;;;;6.17;100.00;101726.34;1031252;28;20305;-83
2022/10/20 00:53:26;;;;;;;6.90;6.03;;;;;;;6.19;100.00;101728.84;1027022;28;20366;-83
2022/10/20 00:54:04;;;;;;;9.35;6.90;;;;;;;6.16;100.00;101731.81;1024181;28;20816;-83
2022/10/20 00:54:36;;;;;;;7.90;6.13;;;;;;;6.18;100.00;101727.19;1026811;28;20305;-83
2022/10/20 00:55:09;;;;;;;11.63;7.07;;;;;;;6.19;100.00;101723.53;1025234;28;20318;-83
2022/10/20 00:55:42;;;;;;;8.15;6.07;;;;;;;6.19;100.00;101726.19;1024406;28;20306;-82
2022/10/20 00:56:13;;;;;;;10.38;6.18;;;;;;;6.22;100.00;101723.19;1027263;28;20815;-82
2022/10/20 00:56:46;;;;;;;7.18;5.82;;;;;;;6.22;100.00;101730.31;1024281;28;20382;-82
2022/10/20 00:57:18;;;;;;;6.82;6.03;;;;;;;6.22;100.00;101728.50;1024081;28;20290;-83
2022/10/20 00:57:51;;;;;;;8.10;7.05;;;;;;;6.25;100.00;101724.69;1019843;29;20299;-82
2022/10/20 00:58:23;;;;;;;8.23;6.43;;;;;;;6.25;100.00;101728.16;1019891;29;20778;-82
2022/10/20 00:58:55;;;;;;;12.18;7.10;;;;;;;6.26;100.00;101718.41;1021888;29;20338;-82
2022/10/20 00:59:29;;;;;;;10.32;7.72;;;;;;;6.25;100.00;101716.75;1020935;28;20298;-82
2022/10/20 01:00:01;;;;;;;8.35;6.25;;;;;;;6.25;100.00;101711.47;1028187;28;20730;-82
2022/10/20 01:00:33;;;;;;;8.07;6.40;;;;;;;6.23;100.00;101719.56;1031306;28;20355;-84
2022/10/20 01:01:05;;;;;;;7.88;7.10;;;;;;;6.26;100.00;101711.28;1031217;28;20311;-83
2022/10/20 01:01:37;;;;;;;8.60;7.15;;;;;;;6.31;100.00;101716.09;1031429;28;20301;-83
2022/10/20 01:02:09;;;;;;;8.85;7.45;;;;;;;6.30;100.00;101717.94;1030828;28;20305;-83
2022/10/20 01:02:41;;;;;;;7.25;6.25;;;;;;;6.26;100.00;101713.94;1033900;28;20300;-83
2022/10/20 01:03:29;;;;;;;8.15;6.57;;;;;;;6.22;100.00;101712.63;1030386;28;20301;-83
2022/10/20 01:04:01;;;;;;;7.28;6.57;;;;;;;6.22;100.00;101711.78;1031111;28;20309;-83
2022/10/20 01:04:33;;;;;;;8.52;6.97;;;;;;;6.22;100.00;101715.28;1027435;28;20309;-83
2022/10/20 01:05:06;;;;;;;7.47;6.32;;;;;;;6.21;100.00;101700.38;1023136;28;20310;-81
2022/10/20 01:05:38;;;;;;;9.90;6.38;;;;;;;6.22;100.00;101698.56;1021318;28;20299;-84
2022/10/20 01:06:11;;;;;;;7.07;6.40;;;;;;;6.23;100.00;101698.41;1028156;28;20328;-83
2022/10/20 01:06:43;;;;;;;9.82;7.20;;;;;;;6.21;100.00;101695.09;1023723;28;20390;-83
2022/10/20 01:07:15;;;;;;;11.00;6.68;;;;;;;6.18;100.00;101700.72;1024092;28;20305;-84
2022/10/20 01:07:46;;;;;;;9.75;6.57;;;;;;;6.22;100.00;101707.34;1022855;29;20307;-82
2022/10/20 01:08:18;;;;;;;12.55;7.45;;;;;;;6.20;100.00;101698.75;1016645;29;20307;-83
2022/10/20 01:08:51;;;;;;;10.10;6.32;;;;;;;6.22;100.00;101698.56;1018051;29;20842;-83
2022/10/20 01:09:23;;;;;;;8.00;7.28;;;;;;;6.20;100.00;101702.22;1019938;28;20718;-83
2022/10/20 01:09:55;;;;;;;7.28;6.57;;;;;;;6.21;100.00;101703.03;1026657;28;20869;-83
2022/10/20 01:10:31;;;;;;;8.85;6.45;;;;;;;6.18;100.00;101698.06;1027497;28;20358;-81
2022/10/20 01:11:16;;;;;;;8.30;6.40;;;;;;;6.20;100.00;101706.66;1031126;28;20312;-84
2022/10/20 01:12:08;;;;;;;10.38;7.50;;;;;;;6.17;100.00;101693.78;1031147;28;20298;-82
2022/10/20 01:13:15;;;;;;;6.50;5.80;;;;;;;6.12;100.00;101690.81;1029506;28;20379;-83
2022/10/20 01:13:56;;;;;;;8.13;6.57;;;;;;;6.14;100.00;101691.47;1018964;29;20314;-83
2022/10/20 01:14:37;;;;;;;;;;;;;;;6.13;100.00;101687.19;1027922;28;20303;-83
2022/10/20 01:15:30;;;;;;;7.22;5.43;;;;;;;6.11;100.00;101686.53;1035493;28;19925;-83
2022/10/20 01:16:13;;;;;;;7.30;4.45;;;;;;;6.11;100.00;101684.69;1031096;28;20042;-82
2022/10/20 01:16:44;;;;;;;5.72;4.90;;;;;;;6.08;100.00;101684.22;1027922;28;20298;-83
2022/10/20 01:17:39;;;;;;;6.78;5.30;;;;;;;6.06;100.00;101684.38;1026859;28;20664;-83
2022/10/20 01:18:17;;;;;;;5.47;4.88;;;;;;;6.11;100.00;101686.53;1018861;29;20323;-83
2022/10/20 01:19:02;;;;;;;5.50;4.45;;;;;;;6.10;100.00;101687.50;1022837;28;20317;-83
2022/10/20 01:20:01;;;;;;;9.35;5.45;;;;;;;6.10;100.00;101684.88;1017693;29;20344;-83
2022/10/20 01:20:59;;;;;;;9.27;5.85;;;;;;;6.09;100.00;101686.69;1025789;28;20299;-83
2022/10/20 01:21:31;;;;;;;14.05;5.72;;;;;;;6.11;100.00;101687.34;1030220;28;20305;-83
2022/10/20 01:22:15;;;;;;;5.35;4.80;;;;;;;6.11;100.00;101694.44;1031570;28;20660;-83
2022/10/20 01:23:00;;;;;;;9.85;4.45;;;;;;;6.09;100.00;101685.84;1026891;28;20290;-83
2022/10/20 01:23:53;;;;;;;9.73;5.53;;;;;;;6.14;100.00;101680.88;1028421;28;20314;-83
2022/10/20 01:24:28;;;;;;;9.93;5.00;;;;;;;6.18;100.00;101685.69;1032091;28;20387;-83
2022/10/20 01:25:37;;;;;;;13.32;5.22;;;;;;;6.16;100.00;101690.31;1032091;28;20302;-83
2022/10/20 01:26:53;;;;;;;11.35;5.35;;;;;;;6.13;100.00;101671.31;1031327;28;20304;-83
2022/10/20 01:27:31;;;;;;;7.75;4.57;;;;;;;6.13;100.00;101692.47;1022768;29;20375;-83
2022/10/20 01:28:10;;;;;;;11.75;5.03;;;;;;;6.10;100.00;101682.22;1025869;28;20797;-83
2022/10/20 01:28:47;;;;;;;8.02;4.60;;;;;;;6.12;100.00;101685.53;1026834;28;20415;-83
2022/10/20 01:29:26;;;;;;;6.03;5.35;;;;;;;6.10;100.00;101687.50;1031173;28;20293;-82
2022/10/20 01:30:14;;;;;;;5.78;4.75;;;;;;;6.10;100.00;101683.03;1030486;28;20297;-83
2022/10/20 01:30:49;;;;;;;6.65;4.72;;;;;;;6.10;100.00;101685.69;1030957;28;20301;-82
2022/10/20 01:31:28;;;;;;;10.23;5.25;;;;;;;6.05;100.00;101679.25;1030974;28;20799;-82
2022/10/20 01:32:00;;;;;;;11.07;4.38;;;;;;;6.09;100.00;101685.84;1026938;28;20306;-82
2022/10/20 01:32:53;;;;;;;7.32;5.15;;;;;;;6.10;100.00;101680.41;1027008;28;20321;-83
2022/10/20 01:33:36;;;;;;;7.88;5.38;;;;;;;6.12;100.00;101677.59;1029717;28;20297;-82
2022/10/20 01:34:18;;;;;;;5.82;4.75;;;;;;;6.09;100.00;101681.41;1031099;28;20656;-83
2022/10/20 01:35:04;;;;;;;9.63;5.07;;;;;;;6.09;100.00;101683.22;1027353;28;20302;-83
2022/10/20 01:35:35;;;;;;;4.88;4.32;;;;;;;6.09;100.00;101677.94;1023273;29;20669;-83
2022/10/20 01:36:13;;;;;;;6.18;4.97;;;;;;;6.07;100.00;101679.91;1026527;28;20301;-83
2022/10/20 01:37:08;;;;;;;11.25;4.88;;;;;;;6.08;100.00;101684.22;1025298;28;20299;-84
2022/10/20 01:37:52;;;;;;;9.77;5.40;;;;;;;6.09;100.00;101680.56;1026718;28;20290;-82
2022/10/20 01:38:42;;;;;;;7.70;4.63;;;;;;;6.07;100.00;101672.81;1023957;28;20365;-83
2022/10/20 01:39:34;;;;;;;4.90;4.43;;;;;;;6.01;100.00;101683.19;1022942;28;20639;-83
2022/10/20 01:40:13;;;;;;;9.15;4.72;;;;;;;6.03;100.00;101678.59;1024450;28;20290;-83
2022/10/20 01:40:49;;;;;;;8.98;4.32;;;;;;;6.00;100.00;101678.91;1027752;28;20673;-83
2022/10/20 01:41:27;;;;;;;8.20;5.30;;;;;;;5.99;100.00;101674.59;1031028;28;20312;-81
2022/10/20 01:42:12;;;;;;;10.75;5.43;;;;;;;6.01;100.00;101668.16;1028396;28;20337;-84
2022/10/20 01:42:44;;;;;;;4.65;4.22;;;;;;;6.01;100.00;101667.31;1026912;28;20349;-83
2022/10/20 01:43:18;;;;;;;7.47;4.57;;;;;;;5.97;100.00;101666.00;1027383;28;20294;-83
2022/10/20 01:43:51;;;;;;;8.35;4.80;;;;;;;5.97;100.00;101666.00;1024897;28;20307;-83
2022/10/20 01:44:24;;;;;;;11.20;5.32;;;;;;;5.97;100.00;101660.72;1027962;28;20653;-82
2022/10/20 01:45:02;;;;;;;5.57;4.82;;;;;;;5.98;100.00;101657.09;1020098;29;20306;-82
2022/10/20 01:45:36;;;;;;;7.15;4.53;;;;;;;5.96;100.00;101659.06;1019342;29;20303;-83
2022/10/20 01:46:09;;;;;;;7.07;5.28;;;;;;;5.94;100.00;101661.06;1025122;28;20345;-83
2022/10/20 01:46:42;;;;;;;7.05;4.15;;;;;;;5.92;100.00;101658.59;1028484;28;20317;-83
2022/10/20 01:47:15;;;;;;;10.25;5.15;;;;;;;5.91;100.00;101654.28;1030945;28;20359;-82
2022/10/20 01:47:47;;;;;;;9.40;4.63;;;;;;;5.91;100.00;101651.63;1025781;28;20313;-82
2022/10/20 01:48:22;;;;;;;9.68;4.25;;;;;;;5.94;100.00;101653.94;1028122;28;20313;-83
2022/10/20 01:48:54;;;;;;;6.20;4.40;;;;;;;5.91;100.00;101651.63;1026739;28;20308;-83
2022/10/20 01:49:26;;;;;;;8.10;4.60;;;;;;;5.92;100.00;101652.47;1025870;28;20813;-83
2022/10/20 01:49:57;;;;;;;9.77;6.18;;;;;;;5.85;100.00;101653.09;1027209;28;20295;-83
2022/10/20 01:50:31;;;;;;;5.95;4.95;;;;;;;5.89;100.00;101648.31;1023254;29;20294;-83
2022/10/20 01:51:03;;;;;;;6.05;4.80;;;;;;;5.86;100.00;101654.75;1019610;29;20798;-84
2022/10/20 01:51:34;;;;;;;6.55;5.45;;;;;;;5.90;100.00;101652.63;1019296;29;20364;-83
2022/10/20 01:52:06;;;;;;;4.93;4.43;;;;;;;5.92;100.00;101653.28;1019103;29;20386;-84
2022/10/20 01:52:38;;;;;;;6.55;4.88;;;;;;;5.94;100.00;101650.47;1021155;28;20299;-84
2022/10/20 01:53:09;;;;;;;8.90;5.90;;;;;;;5.93;100.00;101654.13;1028106;28;20306;-83
2022/10/20 01:53:41;;;;;;;7.47;5.55;;;;;;;5.95;100.00;101652.13;1031140;28;20451;-83
2022/10/20 01:54:24;;;;;;;12.63;5.22;;;;;;;5.93;100.00;101659.41;1031287;28;20339;-83
2022/10/20 01:54:55;;;;;;;7.10;5.00;;;;;;;5.97;100.00;101656.25;1027272;28;20388;-83
2022/10/20 01:55:27;;;;;;;6.05;4.85;;;;;;;5.97;100.00;101661.53;1028929;28;20310;-83
2022/10/20 01:55:59;;;;;;;8.13;5.70;;;;;;;5.94;100.00;101656.59;1022399;28;20780;-82
2022/10/20 01:56:51;;;;;;;6.25;4.60;;;;;;;5.95;100.00;101646.84;1020562;28;20290;-83
2022/10/20 01:58:13;;;;;;;5.40;4.70;;;;;;;5.95;100.00;101647.66;1022876;29;20816;-82
2022/10/20 01:59:03;;;;;;;5.88;4.68;;;;;;;5.93;100.00;101643.53;1019359;29;20553;-83
2022/10/20 01:59:53;;;;;;;7.43;5.28;;;;;;;5.95;100.00;101636.25;1026386;28;20055;-82
2022/10/20 02:00:24;;;;;;;7.13;5.20;;;;;;;5.96;100.00;101632.63;1031013;28;20297;-82
2022/10/20 02:01:02;;;;;;;5.75;4.78;;;;;;;5.95;100.00;101631.81;1031217;28;20301;-83
2022/10/20 02:01:56;;;;;;;5.80;4.95;;;;;;;5.97;100.00;101629.00;1030659;28;20297;-83
2022/10/20 02:03:09;;;;;;;8.60;4.65;;;;;;;5.92;100.00;101626.03;1031378;28;20376;-82
2022/10/20 02:03:48;;;;;;;5.85;4.60;;;;;;;5.91;100.00;101621.72;1009542;29;20894;-83
2022/10/20 02:04:27;;;;;;;13.13;5.65;;;;;;;5.93;100.00;101619.75;1022075;28;20305;-81
2022/10/20 02:05:08;;;;;;;5.07;4.38;;;;;;;5.92;100.00;101615.44;1023458;28;20295;-82
2022/10/20 02:06:13;;;;;;;9.98;5.57;;;;;;;5.89;100.00;101620.09;1028729;28;20357;-83
2022/10/20 02:06:53;;;;;;;10.18;5.28;;;;;;;5.85;100.00;101621.38;1032801;28;20405;-82
2022/10/20 02:07:28;;;;;;;8.45;5.28;;;;;;;5.84;100.00;101619.72;1035409;28;20293;-83
2022/10/20 02:08:12;;;;;;;10.25;5.32;;;;;;;5.82;100.00;101616.44;1024428;28;20035;-83
2022/10/20 02:08:46;;;;;;;7.10;4.55;;;;;;;5.82;100.00;101626.19;1027025;28;20385;-83
2022/10/20 02:09:45;;;;;;;6.25;5.65;;;;;;;5.82;100.00;101611.13;1021154;29;20315;-83
2022/10/20 02:10:21;;;;;;;8.80;4.85;;;;;;;5.82;100.00;101611.13;1021972;28;20397;-83
2022/10/20 02:10:57;;;;;;;6.25;5.35;;;;;;;5.85;100.00;101607.34;1016107;29;20308;-82
2022/10/20 02:11:38;;;;;;;6.43;4.40;;;;;;;5.84;100.00;101608.31;1023318;28;20287;-83
2022/10/20 02:12:15;;;;;;;10.48;5.25;;;;;;;5.87;100.00;101608.81;1026026;28;20297;-84
2022/10/20 02:12:49;;;;;;;7.97;5.15;;;;;;;5.86;100.00;101604.53;1027622;28;20317;-82
2022/10/20 02:13:21;;;;;;;12.20;4.93;;;;;;;5.84;100.00;101609.16;1027428;28;20298;-82
2022/10/20 02:13:54;;;;;;;7.55;5.43;;;;;;;5.83;100.00;101602.22;1022816;28;20646;-83
2022/10/20 02:14:26;;;;;;;9.82;5.30;;;;;;;5.83;100.00;101602.22;1020124;28;20303;-83
2022/10/20 02:14:59;;;;;;;8.40;5.45;;;;;;;5.81;100.00;101603.38;1022716;28;20305;-83
2022/10/20 02:15:31;;;;;;;7.03;4.85;;;;;;;5.84;100.00;101606.50;1020775;28;20300;-84
2022/10/20 02:16:08;;;;;;;6.35;5.50;;;;;;;5.85;100.00;101604.69;1023786;28;20309;-83
2022/10/20 02:16:44;;;;;;;8.27;5.13;;;;;;;5.85;100.00;101605.50;1023115;28;20365;-83
2022/10/20 02:17:18;;;;;;;14.32;5.88;;;;;;;5.87;100.00;101614.09;1026983;28;20321;-83
2022/10/20 02:17:54;;;;;;;6.75;5.50;;;;;;;5.83;100.00;101614.59;1026889;28;20297;-83
2022/10/20 02:18:30;;;;;;;7.68;5.63;;;;;;;5.82;100.00;101605.84;1025389;28;20299;-84
2022/10/20 02:19:03;;;;;;;6.45;4.85;;;;;;;5.79;100.00;101606.19;1026420;28;20792;-84
2022/10/20 02:19:38;;;;;;;10.80;6.75;;;;;;;5.77;100.00;101602.88;1022920;28;20307;-83
2022/10/20 02:20:10;;;;;;;5.90;5.40;;;;;;;5.79;100.00;101606.19;1023074;28;20315;-82
2022/10/20 02:20:43;;;;;;;6.63;5.28;;;;;;;5.79;100.00;101606.19;1024038;28;20302;-83
2022/10/20 02:21:15;;;;;;;8.45;5.20;;;;;;;5.73;100.00;101601.53;1027282;28;20312;-84
2022/10/20 02:21:47;;;;;;;7.47;5.68;;;;;;;5.75;100.00;101596.09;1029521;28;20681;-84
2022/10/20 02:22:19;;;;;;;13.25;5.20;;;;;;;5.76;100.00;101601.22;1030789;28;20305;-84
2022/10/20 02:22:51;;;;;;;7.93;5.30;;;;;;;5.77;100.00;101602.88;1022945;28;20314;-83
2022/10/20 02:23:23;;;;;;;5.68;4.53;;;;;;;5.75;100.00;101602.22;1024995;28;20310;-82
2022/10/20 02:23:55;;;;;;;6.40;5.03;;;;;;;5.76;100.00;101601.22;1023504;28;20371;-83
2022/10/20 02:24:32;;;;;;;7.47;5.43;;;;;;;5.76;100.00;101595.94;1023609;28;20507;-83
2022/10/20 02:25:04;;;;;;;8.98;5.07;;;;;;;5.77;100.00;101599.41;1022871;29;20314;-83
2022/10/20 02:25:37;;;;;;;5.70;5.15;;;;;;;5.79;100.00;101600.91;1016830;29;20307;-83
2022/10/20 02:26:13;;;;;;;5.68;4.82;;;;;;;5.77;100.00;101596.78;1017518;28;20303;-82
2022/10/20 02:26:44;;;;;;;7.25;5.20;;;;;;;5.76;100.00;101590.66;1020291;29;20299;-83
2022/10/20 02:27:29;;;;;;;7.22;4.82;;;;;;;5.78;100.00;101591.31;1021508;28;20315;-82
2022/10/20 02:28:03;;;;;;;7.05;4.00;;;;;;;5.92;100.00;101604.88;1025897;28;20774;-83
2022/10/20 02:28:36;;;;;;;9.85;6.28;;;;;;;5.85;100.00;101597.59;1025126;28;20314;-82
2022/10/20 02:29:20;;;;;;;5.05;4.53;;;;;;;5.81;100.00;101604.19;1024186;28;20302;-83
2022/10/20 02:29:59;;;;;;;4.97;3.95;;;;;;;5.81;100.00;101601.56;1025226;28;20724;-83
2022/10/20 02:30:31;;;;;;;8.18;5.95;;;;;;;5.82;100.00;101605.84;1026064;28;20310;-83
2022/10/20 02:31:03;;;;;;;5.55;4.55;;;;;;;5.82;100.00;101603.22;1030059;28;20289;-83
2022/10/20 02:31:35;;;;;;;10.25;4.63;;;;;;;5.83;100.00;101598.75;1030764;28;20301;-83
2022/10/20 02:32:07;;;;;;;6.32;4.95;;;;;;;5.80;100.00;101602.53;1030659;28;20301;-83
2022/10/20 02:32:40;;;;;;;4.95;4.43;;;;;;;5.74;100.00;101597.91;1030722;28;20316;-83
2022/10/20 02:33:13;;;;;;;7.30;5.18;;;;;;;5.74;100.00;101595.25;1027178;28;20320;-83
2022/10/20 02:33:45;;;;;;;7.00;4.78;;;;;;;5.76;100.00;101595.13;1027214;28;20392;-82
2022/10/20 02:34:17;;;;;;;6.03;5.43;;;;;;;5.77;100.00;101592.31;1026854;28;20298;-82
2022/10/20 02:34:48;;;;;;;5.68;4.40;;;;;;;5.77;100.00;101588.84;1022870;28;20303;-82
2022/10/20 02:35:30;;;;;;;11.27;4.97;;;;;;;5.76;100.00;101590.66;1027372;28;20352;-82
2022/10/20 02:36:04;;;;;;;5.45;3.95;;;;;;;5.75;100.00;101578.44;1029720;28;20297;-82
2022/10/20 02:36:38;;;;;;;10.80;5.93;;;;;;;5.76;100.00;101580.09;1031088;28;20660;-82
2022/10/20 02:37:10;;;;;;;8.25;4.93;;;;;;;5.75;100.00;101581.06;1027096;28;20306;-81
2022/10/20 02:37:42;;;;;;;10.00;4.47;;;;;;;5.77;100.00;101583.56;1022891;28;20390;-82
2022/10/20 02:38:13;;;;;;;6.07;5.45;;;;;;;5.75;100.00;101583.72;1015767;29;20308;-82
2022/10/20 02:38:45;;;;;;;9.10;4.78;;;;;;;5.75;100.00;101586.38;1015800;29;20292;-82
2022/10/20 02:39:17;;;;;;;19.35;5.32;;;;;;;5.71;100.00;101571.81;1011150;29;20769;-82
2022/10/20 02:39:48;;;;;;;6.95;4.78;;;;;;;5.74;100.00;101576.75;1011855;29;20822;-83
2022/10/20 02:40:21;;;;;;;12.02;5.85;;;;;;;5.76;100.00;101577.44;1015951;29;20296;-83
2022/10/20 02:40:52;;;;;;;6.55;4.57;;;;;;;5.75;100.00;101578.44;1019747;28;21305;-82
2022/10/20 02:41:25;;;;;;;6.13;5.20;;;;;;;5.73;100.00;101575.09;1026845;28;20313;-83
2022/10/20 02:41:57;;;;;;;8.98;4.60;;;;;;;5.73;100.00;101584.84;1023761;28;20298;-83
2022/10/20 02:42:28;;;;;;;5.28;4.78;;;;;;;5.76;100.00;101574.81;1023144;28;20657;-82
2022/10/20 02:43:00;;;;;;;8.98;5.32;;;;;;;5.79;100.00;101577.09;1024619;28;20306;-83
2022/10/20 02:43:31;;;;;;;5.93;4.45;;;;;;;5.82;100.00;101574.13;1027768;28;20306;-81
2022/10/20 02:44:03;;;;;;;6.95;4.78;;;;;;;5.82;100.00;101574.13;1031290;28;20304;-82
2022/10/20 02:44:35;;;;;;;9.68;4.93;;;;;;;5.81;100.00;101572.47;1030990;28;20337;-82
2022/10/20 02:45:07;;;;;;;6.22;4.72;;;;;;;5.81;100.00;101572.47;1031176;28;20304;-82
2022/10/20 02:45:38;;;;;;;7.50;4.63;;;;;;;5.81;100.00;101569.00;1029053;28;20297;-83
2022/10/20 02:46:10;;;;;;;6.35;4.68;;;;;;;5.79;100.00;101574.47;1023540;28;20306;-82
2022/10/20 02:46:42;;;;;;;9.98;4.75;;;;;;;5.76;100.00;101574.81;1022698;28;20377;-83
2022/10/20 02:47:14;;;;;;;8.95;5.25;;;;;;;5.75;100.00;101567.88;1023611;28;20357;-82